Time;durP1;ratioP1;P1;durP2;ratioP2;P2;SDS_P1;SDS_P2;PMS_P1;PMS_P2;Temp;Humidity;BMP_temperature;BMP_pressure;BME280_temperature;BME280_humidity;BME280_pressure;Samples;Min_cycle;Max_cycle;Signal;HPM_P1;HPM_P2
2021/10/17 00:03:43;;;;;;;32.58;12.15;;;;;;;;;;8261846;28;20500;-75
2021/10/17 00:07:49;;;;;;;27.27;12.02;;;;;;;;;;8240513;28;20515;-75
2021/10/17 00:11:54;;;;;;;35.58;12.30;;;;;;;;;;8248093;28;20480;-75
2021/10/17 00:16:01;;;;;;;28.02;11.40;;;;;;;;;;8250999;28;20048;-75
2021/10/17 00:20:08;;;;;;;38.55;14.82;;;;;;;;;;8265673;28;20474;-75
2021/10/17 00:24:13;;;;;;;31.58;12.80;;;;;;;;;;8263960;28;20468;-75
2021/10/17 00:28:19;;;;;;;30.42;12.90;;;;;;;;;;8264796;28;20460;-75
2021/10/17 00:32:28;;;;;;;29.70;12.82;;;;;;;;;;8262736;28;20496;-75
2021/10/17 00:36:34;;;;;;;31.17;11.25;;;;;;;;;;8266909;28;20344;-75
2021/10/17 00:40:39;;;;;;;30.88;12.90;;;;;;;;;;8248960;28;20479;-75
2021/10/17 00:44:45;;;;;;;29.60;11.18;;;;;;;;;;8232548;28;20037;-75
2021/10/17 00:48:50;;;;;;;33.17;12.55;;;;;;;;;;8245699;28;20154;-75
2021/10/17 00:52:56;;;;;;;31.92;12.18;;;;;;;;;;8265985;28;20348;-75
2021/10/17 00:57:01;;;;;;;38.58;13.65;;;;;;;;;;8218030;28;20343;-75
2021/10/17 01:01:06;;;;;;;34.17;13.75;;;;;;;;;;8246695;28;20470;-75
2021/10/17 01:05:14;;;;;;;32.97;12.52;;;;;;;;;;8231466;28;20462;-75
2021/10/17 01:09:19;;;;;;;28.58;11.70;;;;;;;;;;8229744;28;20528;-75
2021/10/17 01:13:25;;;;;;;29.48;11.70;;;;;;;;;;8229793;28;20053;-75
2021/10/17 01:17:31;;;;;;;31.65;13.07;;;;;;;;;;8232975;28;20344;-75
2021/10/17 01:21:40;;;;;;;32.28;12.55;;;;;;;;;;8233413;28;20482;-75
2021/10/17 01:25:46;;;;;;;34.50;12.55;;;;;;;;;;8230703;28;20361;-75
2021/10/17 01:29:51;;;;;;;35.78;12.63;;;;;;;;;;8231000;28;20464;-75
2021/10/17 01:33:56;;;;;;;32.03;13.38;;;;;;;;;;8231365;28;20476;-75
2021/10/17 01:38:02;;;;;;;30.33;12.05;;;;;;;;;;8232772;28;20359;-75
2021/10/17 01:42:07;;;;;;;33.28;13.57;;;;;;;;;;8233146;28;20351;-75
2021/10/17 01:46:20;;;;;;;38.15;13.75;;;;;;;;;;8231594;28;20037;-75
2021/10/17 01:50:26;;;;;;;35.15;14.73;;;;;;;;;;8213347;28;20479;-75
2021/10/17 01:54:31;;;;;;;41.40;15.27;;;;;;;;;;8230858;28;20045;-75
2021/10/17 01:58:37;;;;;;;30.83;13.35;;;;;;;;;;8230245;28;20349;-75
2021/10/17 02:02:43;;;;;;;36.42;13.82;;;;;;;;;;8229643;28;20041;-75
2021/10/17 02:07:01;;;;;;;31.95;13.50;;;;;;;;;;8229944;28;20380;-75
2021/10/17 02:11:06;;;;;;;33.70;14.98;;;;;;;;;;8198470;28;20445;-75
2021/10/17 02:15:11;;;;;;;31.20;12.70;;;;;;;;;;8199094;28;20463;-76
2021/10/17 02:19:17;;;;;;;34.42;12.60;;;;;;;;;;8197176;28;20034;-75
2021/10/17 02:23:22;;;;;;;34.13;12.75;;;;;;;;;;8198097;28;20461;-75
2021/10/17 02:27:30;;;;;;;30.63;15.47;;;;;;;;;;8197364;28;20403;-75
2021/10/17 02:31:38;;;;;;;37.25;14.65;;;;;;;;;;8197436;28;20476;-75
2021/10/17 02:35:44;;;;;;;38.63;15.95;;;;;;;;;;8181550;28;20049;-75
2021/10/17 02:39:49;;;;;;;31.25;16.08;;;;;;;;;;8199476;28;20042;-75
2021/10/17 02:43:55;;;;;;;44.03;18.52;;;;;;;;;;8195170;28;20327;-75
2021/10/17 02:48:00;;;;;;;35.05;16.90;;;;;;;;;;8197748;28;20465;-75
2021/10/17 02:52:07;;;;;;;41.28;18.33;;;;;;;;;;8193943;28;20377;-75
2021/10/17 02:56:12;;;;;;;47.22;21.33;;;;;;;;;;8179255;28;20378;-75
2021/10/17 03:00:18;;;;;;;50.80;19.85;;;;;;;;;;8195824;28;20462;-75
2021/10/17 03:04:28;;;;;;;41.50;17.70;;;;;;;;;;8196225;28;20068;-75
2021/10/17 03:08:38;;;;;;;49.22;21.77;;;;;;;;;;8219367;28;20362;-75
2021/10/17 03:12:44;;;;;;;55.92;21.60;;;;;;;;;;8257977;28;20542;-75
2021/10/17 03:16:55;;;;;;;52.05;19.92;;;;;;;;;;8240907;28;20068;-76
2021/10/17 03:21:01;;;;;;;53.13;21.58;;;;;;;;;;8243684;28;20467;-75
2021/10/17 03:25:07;;;;;;;45.20;20.52;;;;;;;;;;8261109;28;20368;-75
2021/10/17 03:29:13;;;;;;;49.58;21.83;;;;;;;;;;8243273;28;20468;-75
2021/10/17 03:33:18;;;;;;;47.47;20.33;;;;;;;;;;8241342;28;20426;-75
2021/10/17 03:37:33;;;;;;;48.83;20.60;;;;;;;;;;8241070;28;20471;-75
2021/10/17 03:41:38;;;;;;;51.53;22.20;;;;;;;;;;8241053;28;20396;-75
2021/10/17 03:45:44;;;;;;;48.63;20.73;;;;;;;;;;8226914;28;20075;-76
2021/10/17 03:49:49;;;;;;;54.55;21.17;;;;;;;;;;8224531;28;20067;-75
2021/10/17 03:54:01;;;;;;;58.50;23.00;;;;;;;;;;8225309;28;20061;-75
2021/10/17 03:58:06;;;;;;;56.25;24.50;;;;;;;;;;8262769;28;20071;-75
2021/10/17 04:02:12;;;;;;;56.83;23.33;;;;;;;;;;8246581;28;20041;-75
2021/10/17 04:06:17;;;;;;;54.60;23.67;;;;;;;;;;8230558;28;20048;-75
2021/10/17 04:10:26;;;;;;;48.90;22.85;;;;;;;;;;8264207;28;20076;-75
2021/10/17 04:14:31;;;;;;;64.75;23.15;;;;;;;;;;8230554;28;20578;-75
2021/10/17 04:18:40;;;;;;;54.83;23.15;;;;;;;;;;8245832;28;20088;-75
2021/10/17 04:22:45;;;;;;;52.55;22.17;;;;;;;;;;8246673;28;20464;-75
2021/10/17 04:26:51;;;;;;;45.83;20.35;;;;;;;;;;8261295;28;20371;-76
2021/10/17 04:30:59;;;;;;;43.05;19.38;;;;;;;;;;8261395;28;20084;-75
2021/10/17 04:35:06;;;;;;;52.97;20.60;;;;;;;;;;8261955;28;20372;-75
2021/10/17 04:39:11;;;;;;;48.95;21.13;;;;;;;;;;8263391;28;20464;-75
2021/10/17 04:43:16;;;;;;;50.85;20.63;;;;;;;;;;8244651;28;20041;-75
2021/10/17 04:47:23;;;;;;;49.90;22.08;;;;;;;;;;8228646;28;20463;-75
2021/10/17 04:51:28;;;;;;;58.78;22.38;;;;;;;;;;8244894;28;20055;-75
2021/10/17 04:55:33;;;;;;;57.05;22.70;;;;;;;;;;8244177;28;20375;-75
2021/10/17 04:59:42;;;;;;;58.55;21.92;;;;;;;;;;8229416;28;20483;-75
2021/10/17 05:03:47;;;;;;;55.95;21.75;;;;;;;;;;8244311;28;20457;-75
2021/10/17 05:07:53;;;;;;;45.83;20.75;;;;;;;;;;8259976;28;20472;-76
2021/10/17 05:11:58;;;;;;;48.78;20.45;;;;;;;;;;8260181;28;20049;-75
2021/10/17 05:16:03;;;;;;;51.95;22.17;;;;;;;;;;8261188;28;20494;-75
2021/10/17 05:20:10;;;;;;;58.17;23.02;;;;;;;;;;8212629;28;20473;-75
2021/10/17 05:24:17;;;;;;;69.17;26.73;;;;;;;;;;8245941;28;20478;-75
2021/10/17 05:28:22;;;;;;;51.72;23.35;;;;;;;;;;8260015;28;20391;-75
2021/10/17 05:32:31;;;;;;;51.53;23.80;;;;;;;;;;8243541;28;20482;-75
2021/10/17 05:36:37;;;;;;;59.33;25.38;;;;;;;;;;8243597;28;20041;-75
2021/10/17 05:40:42;;;;;;;57.90;25.40;;;;;;;;;;8242708;28;20340;-75
2021/10/17 05:44:48;;;;;;;55.75;25.67;;;;;;;;;;8243881;28;20049;-75
2021/10/17 05:48:53;;;;;;;67.82;26.33;;;;;;;;;;8226800;28;20036;-75
2021/10/17 05:52:59;;;;;;;55.10;23.92;;;;;;;;;;8240624;28;20503;-75
2021/10/17 05:57:04;;;;;;;56.95;24.88;;;;;;;;;;8242430;28;20059;-75
2021/10/17 06:01:10;;;;;;;65.57;25.45;;;;;;;;;;8226347;28;20049;-75
2021/10/17 06:05:25;;;;;;;58.65;25.00;;;;;;;;;;8260663;28;20475;-75
2021/10/17 06:09:39;;;;;;;58.70;25.75;;;;;;;;;;8240447;28;20060;-75
2021/10/17 06:13:43;;;;;;;58.30;25.33;;;;;;;;;;8259368;28;20033;-75
2021/10/17 06:17:50;;;;;;;54.97;23.73;;;;;;;;;;8241492;28;20337;-75
2021/10/17 06:21:55;;;;;;;55.65;22.98;;;;;;;;;;8242923;28;20099;-75
2021/10/17 06:26:01;;;;;;;48.33;23.25;;;;;;;;;;8258552;28;20471;-75
2021/10/17 06:30:06;;;;;;;43.78;21.63;;;;;;;;;;8241403;28;20361;-76
2021/10/17 06:34:12;;;;;;;55.78;24.67;;;;;;;;;;8260245;28;20484;-75
2021/10/17 06:38:17;;;;;;;51.58;22.77;;;;;;;;;;8210338;28;21275;-76
2021/10/17 06:42:23;;;;;;;64.30;23.70;;;;;;;;;;8224694;28;20106;-75
2021/10/17 06:46:50;;;;;;;48.70;21.50;;;;;;;;;;8260182;28;20453;-75
2021/10/17 06:50:56;;;;;;;46.65;21.00;;;;;;;;;;8243015;28;20486;-76
2021/10/17 06:55:01;;;;;;;50.33;19.42;;;;;;;;;;8240822;28;20360;-75
2021/10/17 06:59:07;;;;;;;43.25;20.90;;;;;;;;;;8241639;28;20441;-75
2021/10/17 07:03:13;;;;;;;52.17;19.85;;;;;;;;;;8242302;28;20456;-75
2021/10/17 07:07:44;;;;;;;38.13;19.08;;;;;;;;;;8228505;28;20040;-75
2021/10/17 07:11:50;;;;;;;50.83;20.05;;;;;;;;;;8222916;28;20516;-75
2021/10/17 07:16:00;;;;;;;50.45;20.50;;;;;;;;;;8241047;28;20472;-75
2021/10/17 07:20:07;;;;;;;45.28;18.58;;;;;;;;;;8224362;28;20325;-76
2021/10/17 07:24:13;;;;;;;45.28;18.85;;;;;;;;;;8227121;28;20485;-75
2021/10/17 07:28:23;;;;;;;50.00;18.98;;;;;;;;;;8224583;28;20077;-75
2021/10/17 07:32:42;;;;;;;37.28;18.65;;;;;;;;;;8231532;28;20487;-75
2021/10/17 07:36:48;;;;;;;36.15;16.42;;;;;;;;;;8202526;28;20473;-76
2021/10/17 07:40:57;;;;;;;41.97;18.73;;;;;;;;;;8246868;28;20469;-75
2021/10/17 07:45:07;;;;;;;40.35;18.30;;;;;;;;;;8230281;28;20440;-75
2021/10/17 07:49:22;;;;;;;40.58;16.55;;;;;;;;;;8230351;28;20491;-76
2021/10/17 07:53:28;;;;;;;63.60;25.42;;;;;;;;;;8213690;28;20572;-75
2021/10/17 07:57:46;;;;;;;51.05;22.67;;;;;;;;;;8231429;28;20348;-75
2021/10/17 08:01:53;;;;;;;37.83;17.45;;;;;;;;;;8230287;28;20412;-75
2021/10/17 08:06:09;;;;;;;36.50;15.18;;;;;;;;;;8246421;28;20344;-75
2021/10/17 08:10:15;;;;;;;37.10;15.73;;;;;;;;;;8237661;28;20491;-75
2021/10/17 08:14:22;;;;;;;39.38;14.98;;;;;;;;;;8264725;28;20498;-76
2021/10/17 08:18:29;;;;;;;36.88;15.35;;;;;;;;;;8250992;28;20056;-75
2021/10/17 08:22:40;;;;;;;34.55;13.93;;;;;;;;;;8250531;28;20448;-75
2021/10/17 08:26:47;;;;;;;45.50;16.87;;;;;;;;;;8247409;28;20066;-75
2021/10/17 08:31:02;;;;;;;35.15;14.07;;;;;;;;;;8264969;28;20510;-75
2021/10/17 08:35:08;;;;;;;27.92;12.07;;;;;;;;;;8249064;28;20360;-76
2021/10/17 08:39:14;;;;;;;35.67;13.57;;;;;;;;;;8247469;28;20075;-75
2021/10/17 08:43:22;;;;;;;36.60;13.67;;;;;;;;;;8231306;28;20360;-76
2021/10/17 08:47:47;;;;;;;33.90;12.70;;;;;;;;;;8266021;28;20444;-76
2021/10/17 08:51:52;;;;;;;33.93;13.97;;;;;;;;;;8177685;28;20496;-76
2021/10/17 08:55:59;;;;;;;25.52;12.52;;;;;;;;;;8215112;28;20448;-75
2021/10/17 09:00:35;;;;;;;29.85;11.93;;;;;;;;;;8237790;28;20342;-76
2021/10/17 09:04:59;;;;;;;28.65;11.32;;;;;;;;;;8233447;28;20490;-76
2021/10/17 09:09:19;;;;;;;26.27;11.32;;;;;;;;;;8261903;28;20466;-75
2021/10/17 09:13:31;;;;;;;27.73;12.05;;;;;;;;;;8232166;28;20492;-75
2021/10/17 09:17:36;;;;;;;21.52;9.45;;;;;;;;;;8262028;28;20364;-75
2021/10/17 09:22:08;;;;;;;20.63;9.00;;;;;;;;;;8259351;28;20041;-75
2021/10/17 09:26:17;;;;;;;18.50;8.77;;;;;;;;;;8243934;28;20049;-75
2021/10/17 09:30:23;;;;;;;19.60;8.70;;;;;;;;;;8243492;28;20367;-75
2021/10/17 09:34:30;;;;;;;17.45;8.02;;;;;;;;;;8258634;28;20484;-75
2021/10/17 09:38:40;;;;;;;21.90;8.88;;;;;;;;;;8227317;28;20359;-75
2021/10/17 09:43:12;;;;;;;21.30;9.00;;;;;;;;;;8226731;28;20387;-75
2021/10/17 09:47:40;;;;;;;18.85;8.93;;;;;;;;;;8242359;28;20494;-75
2021/10/17 09:51:45;;;;;;;42.53;16.77;;;;;;;;;;8259785;28;20257;-76
2021/10/17 09:55:55;;;;;;;17.65;7.60;;;;;;;;;;8259348;28;20076;-75
2021/10/17 09:59:59;;;;;;;;;;;;;;;;;;8261185;28;20044;-75
2021/10/17 10:04:14;;;;;;;28.75;13.23;;;;;;;;;;8259444;28;20346;-75
2021/10/17 10:08:21;;;;;;;28.17;9.77;;;;;;;;;;8259973;28;20347;-74
2021/10/17 10:12:27;;;;;;;18.70;8.27;;;;;;;;;;8209803;28;20346;-76
2021/10/17 10:16:36;;;;;;;20.52;7.57;;;;;;;;;;8226462;28;20587;-75
2021/10/17 10:20:42;;;;;;;18.85;7.80;;;;;;;;;;8195503;28;20351;-76
2021/10/17 10:24:52;;;;;;;19.50;8.55;;;;;;;;;;8199322;28;20475;-74
2021/10/17 10:29:01;;;;;;;23.77;8.98;;;;;;;;;;8211969;28;20484;-75
2021/10/17 10:33:06;;;;;;;15.40;6.93;;;;;;;;;;8218510;28;20072;-75
2021/10/17 10:37:25;;;;;;;17.90;7.75;;;;;;;;;;8211942;28;20492;-75
2021/10/17 10:41:31;;;;;;;22.30;11.48;;;;;;;;;;8216663;28;20442;-74
2021/10/17 10:45:37;;;;;;;25.20;12.38;;;;;;;;;;8204820;28;20357;-75
2021/10/17 10:49:49;;;;;;;16.98;8.45;;;;;;;;;;8207970;28;20652;-75
2021/10/17 10:53:55;;;;;;;15.65;7.15;;;;;;;;;;8207732;28;20453;-75
2021/10/17 10:58:21;;;;;;;38.08;12.70;;;;;;;;;;8206459;28;20431;-75
2021/10/17 11:02:27;;;;;;;54.90;15.52;;;;;;;;;;8209257;28;20471;-75
2021/10/17 11:06:32;;;;;;;22.58;7.85;;;;;;;;;;8207627;28;20548;-75
2021/10/17 11:10:40;;;;;;;33.05;9.45;;;;;;;;;;8207180;28;20068;-75
2021/10/17 11:14:46;;;;;;;20.67;7.18;;;;;;;;;;8250941;28;20336;-75
2021/10/17 11:18:59;;;;;;;15.27;6.05;;;;;;;;;;8256253;28;20427;-74
2021/10/17 11:23:06;;;;;;;27.80;9.20;;;;;;;;;;8256757;28;20472;-74
2021/10/17 11:27:14;;;;;;;21.13;8.52;;;;;;;;;;8236462;28;20352;-76
2021/10/17 11:31:23;;;;;;;24.67;10.00;;;;;;;;;;8255468;28;20067;-74
2021/10/17 11:35:34;;;;;;;13.98;4.88;;;;;;;;;;8244056;28;20486;-74
2021/10/17 11:39:58;;;;;;;15.18;4.00;;;;;;;;;;8243293;28;20033;-74
2021/10/17 11:44:02;;;;;;;21.08;6.93;;;;;;;;;;8220620;28;20372;-74
2021/10/17 11:48:13;;;;;;;15.48;6.47;;;;;;;;;;8239654;28;20411;-74
2021/10/17 11:52:19;;;;;;;17.40;7.15;;;;;;;;;;8241252;28;20067;-74
2021/10/17 11:56:24;;;;;;;13.77;5.95;;;;;;;;;;8095320;28;20387;-74
2021/10/17 12:00:35;;;;;;;18.08;7.03;;;;;;;;;;8239780;28;20456;-74
2021/10/17 12:04:44;;;;;;;14.27;3.75;;;;;;;;;;8236629;28;20371;-75
2021/10/17 12:08:56;;;;;;;15.50;7.40;;;;;;;;;;8256238;28;20059;-75
2021/10/17 12:13:04;;;;;;;19.30;5.03;;;;;;;;;;8253334;28;20475;-74
2021/10/17 12:17:08;;;;;;;16.50;5.97;;;;;;;;;;8256811;28;20063;-74
2021/10/17 12:21:16;;;;;;;9.95;3.50;;;;;;;;;;8259604;28;20033;-74
2021/10/17 12:25:22;;;;;;;9.85;4.43;;;;;;;;;;8234509;28;20172;-74
2021/10/17 12:29:32;;;;;;;12.05;3.75;;;;;;;;;;8259422;28;20068;-75
2021/10/17 12:33:37;;;;;;;16.63;6.55;;;;;;;;;;8239039;28;20505;-75
2021/10/17 12:37:41;;;;;;;10.85;5.22;;;;;;;;;;8250195;28;20069;-74
2021/10/17 12:41:45;;;;;;;10.55;4.78;;;;;;;;;;8249344;28;20460;-74
2021/10/17 12:45:49;;;;;;;14.02;5.40;;;;;;;;;;8248958;28;20648;-75
2021/10/17 12:49:55;;;;;;;13.85;5.65;;;;;;;;;;8258589;28;20420;-74
2021/10/17 12:54:13;;;;;;;15.60;6.10;;;;;;;;;;8256863;28;20414;-75
2021/10/17 12:58:28;;;;;;;17.58;6.30;;;;;;;;;;8265289;28;20474;-75
2021/10/17 13:02:40;;;;;;;14.57;5.53;;;;;;;;;;8255610;28;20092;-75
2021/10/17 13:06:52;;;;;;;20.65;8.18;;;;;;;;;;8249369;28;20356;-75
2021/10/17 13:11:14;;;;;;;21.25;10.13;;;;;;;;;;8257039;28;20495;-74
2021/10/17 13:15:27;;;;;;;25.48;10.18;;;;;;;;;;8257194;28;20476;-75
2021/10/17 13:19:32;;;;;;;55.47;27.85;;;;;;;;;;8247592;28;20041;-75
2021/10/17 13:23:36;;;;;;;18.58;9.23;;;;;;;;;;8248867;28;20479;-75
2021/10/17 13:27:40;;;;;;;36.65;15.40;;;;;;;;;;8243133;28;20045;-75
2021/10/17 13:31:45;;;;;;;27.27;11.93;;;;;;;;;;8241123;28;20444;-75
2021/10/17 13:35:49;;;;;;;56.47;22.20;;;;;;;;;;8241096;28;20044;-74
2021/10/17 13:39:55;;;;;;;36.90;15.43;;;;;;;;;;8261455;28;20053;-75
2021/10/17 13:44:01;;;;;;;44.42;19.00;;;;;;;;;;8259906;28;20455;-76
2021/10/17 13:48:06;;;;;;;26.42;12.25;;;;;;;;;;8242530;28;20048;-76
2021/10/17 13:52:12;;;;;;;43.63;17.67;;;;;;;;;;8260865;28;20048;-76
2021/10/17 13:56:18;;;;;;;52.75;18.58;;;;;;;;;;8257387;28;20460;-76
2021/10/17 14:00:26;;;;;;;27.83;9.32;;;;;;;;;;8257363;28;20526;-75
2021/10/17 14:04:31;;;;;;;51.85;13.48;;;;;;;;;;8256985;28;20059;-76
2021/10/17 14:08:37;;;;;;;84.05;19.95;;;;;;;;;;8258266;28;20482;-75
2021/10/17 14:12:42;;;;;;;75.88;21.35;;;;;;;;;;8166168;28;20367;-76
2021/10/17 14:16:47;;;;;;;102.45;27.50;;;;;;;;;;8260546;28;20482;-76
2021/10/17 14:20:53;;;;;;;102.82;22.92;;;;;;;;;;8259442;28;20589;-76
2021/10/17 14:24:59;;;;;;;46.92;13.00;;;;;;;;;;8242300;28;20467;-76
2021/10/17 14:29:05;;;;;;;27.95;9.43;;;;;;;;;;8240365;28;20472;-76
2021/10/17 14:33:09;;;;;;;30.23;9.73;;;;;;;;;;8259759;28;20076;-75
2021/10/17 14:37:13;;;;;;;28.05;11.77;;;;;;;;;;8211251;28;20108;-75
2021/10/17 14:41:18;;;;;;;30.23;13.52;;;;;;;;;;8258669;28;20483;-75
2021/10/17 14:45:23;;;;;;;14.52;6.68;;;;;;;;;;8258330;28;20045;-75
2021/10/17 14:49:29;;;;;;;19.85;6.97;;;;;;;;;;8223815;28;20044;-75
2021/10/17 14:53:34;;;;;;;15.13;6.07;;;;;;;;;;8256719;28;20088;-75
2021/10/17 14:57:39;;;;;;;9.25;5.10;;;;;;;;;;8257000;28;20456;-75
2021/10/17 15:01:44;;;;;;;19.58;8.40;;;;;;;;;;8240807;28;20456;-75
2021/10/17 15:05:49;;;;;;;21.30;8.95;;;;;;;;;;8237900;28;20326;-76
2021/10/17 15:09:55;;;;;;;19.45;9.23;;;;;;;;;;8255750;28;20376;-75
2021/10/17 15:13:59;;;;;;;23.80;9.95;;;;;;;;;;8238706;28;20468;-75
2021/10/17 15:18:04;;;;;;;22.45;10.88;;;;;;;;;;8256767;28;20367;-75
2021/10/17 15:22:08;;;;;;;28.80;10.48;;;;;;;;;;8238209;28;20467;-75
2021/10/17 15:26:12;;;;;;;38.45;17.67;;;;;;;;;;8239718;28;20468;-75
2021/10/17 15:30:17;;;;;;;43.65;17.95;;;;;;;;;;8238219;28;20372;-74
2021/10/17 15:34:22;;;;;;;34.85;14.45;;;;;;;;;;8237866;28;20372;-75
2021/10/17 15:38:25;;;;;;;30.40;13.35;;;;;;;;;;8254168;28;20040;-75
2021/10/17 15:42:30;;;;;;;47.83;16.25;;;;;;;;;;8256264;28;20347;-74
2021/10/17 15:46:35;;;;;;;38.13;15.65;;;;;;;;;;8254683;28;20325;-75
2021/10/17 15:50:40;;;;;;;51.63;21.73;;;;;;;;;;8250632;28;20356;-75
2021/10/17 15:54:44;;;;;;;72.25;31.48;;;;;;;;;;8263560;28;20475;-75
2021/10/17 15:58:48;;;;;;;64.30;24.67;;;;;;;;;;8261776;28;20353;-74
2021/10/17 16:02:52;;;;;;;50.60;19.48;;;;;;;;;;8261929;28;20037;-75
2021/10/17 16:06:57;;;;;;;30.88;12.38;;;;;;;;;;8251974;28;20463;-75
2021/10/17 16:11:01;;;;;;;32.22;12.65;;;;;;;;;;8243142;28;20040;-74
2021/10/17 16:15:05;;;;;;;43.80;18.17;;;;;;;;;;8260599;28;20041;-74
2021/10/17 16:19:09;;;;;;;70.53;27.83;;;;;;;;;;8260843;28;20063;-75
2021/10/17 16:23:13;;;;;;;65.55;26.15;;;;;;;;;;8259906;28;20053;-75
2021/10/17 16:27:17;;;;;;;76.05;28.35;;;;;;;;;;8242832;28;20472;-74
2021/10/17 16:31:26;;;;;;;87.97;37.20;;;;;;;;;;8261192;28;20372;-74
2021/10/17 16:35:31;;;;;;;;;;;;;;;;;;8243043;28;20049;-74
2021/10/17 16:39:35;;;;;;;154.13;59.13;;;;;;;;;;8257024;28;19921;-75
2021/10/17 16:43:42;;;;;;;84.95;36.67;;;;;;;;;;8261409;28;20079;-75
2021/10/17 16:47:47;;;;;;;109.57;42.80;;;;;;;;;;8258678;28;20044;-74
2021/10/17 16:51:51;;;;;;;76.40;32.38;;;;;;;;;;8259597;28;20383;-75
2021/10/17 16:55:57;;;;;;;84.43;34.88;;;;;;;;;;8259703;28;20476;-74
2021/10/17 17:00:01;;;;;;;143.48;44.08;;;;;;;;;;8259400;28;20063;-74
2021/10/17 17:04:06;;;;;;;134.50;42.25;;;;;;;;;;8243462;28;20442;-75
2021/10/17 17:08:12;;;;;;;105.32;38.83;;;;;;;;;;8261066;28;20494;-74
2021/10/17 17:12:20;;;;;;;128.27;43.60;;;;;;;;;;8259582;28;20064;-74
2021/10/17 17:16:25;;;;;;;95.78;33.72;;;;;;;;;;8242026;28;20449;-74
2021/10/17 17:20:33;;;;;;;36.90;17.58;;;;;;;;;;8210320;28;20075;-74
2021/10/17 17:24:39;;;;;;;163.18;39.88;;;;;;;;;;8241439;28;20376;-74
2021/10/17 17:28:45;;;;;;;88.57;28.02;;;;;;;;;;8242685;28;20072;-74
2021/10/17 17:32:51;;;;;;;111.97;42.75;;;;;;;;;;8242549;28;20474;-74
2021/10/17 17:36:55;;;;;;;81.70;28.63;;;;;;;;;;8257542;28;20045;-74
2021/10/17 17:41:01;;;;;;;56.83;21.15;;;;;;;;;;8239609;28;20354;-75
2021/10/17 17:45:08;;;;;;;37.80;14.00;;;;;;;;;;8243883;28;20395;-75
2021/10/17 17:49:12;;;;;;;30.40;11.85;;;;;;;;;;8259721;28;20045;-75
2021/10/17 17:53:17;;;;;;;29.33;10.57;;;;;;;;;;8259272;28;20068;-75
2021/10/17 17:57:23;;;;;;;132.38;36.67;;;;;;;;;;8258712;28;20341;-75
2021/10/17 18:01:28;;;;;;;121.03;36.45;;;;;;;;;;8259032;28;20045;-75
2021/10/17 18:05:34;;;;;;;126.70;42.47;;;;;;;;;;8258612;28;20372;-75
2021/10/17 18:09:39;;;;;;;141.55;48.70;;;;;;;;;;8258171;28;20474;-75
2021/10/17 18:13:43;;;;;;;81.95;29.77;;;;;;;;;;8241144;28;20053;-75
2021/10/17 18:17:52;;;;;;;63.30;23.17;;;;;;;;;;8258986;28;20464;-75
2021/10/17 18:21:57;;;;;;;63.10;20.85;;;;;;;;;;8259961;28;20355;-75
2021/10/17 18:26:03;;;;;;;61.25;21.90;;;;;;;;;;8240742;28;20353;-74
2021/10/17 18:30:12;;;;;;;79.55;27.45;;;;;;;;;;8257362;28;20383;-75
2021/10/17 18:34:18;;;;;;;69.80;23.67;;;;;;;;;;8258571;28;20407;-75
2021/10/17 18:38:23;;;;;;;38.08;13.95;;;;;;;;;;8259063;28;20478;-75
2021/10/17 18:42:29;;;;;;;30.08;11.77;;;;;;;;;;8257430;28;20175;-75
2021/10/17 18:46:34;;;;;;;48.78;16.08;;;;;;;;;;8258368;28;20403;-74
2021/10/17 18:50:40;;;;;;;39.55;14.35;;;;;;;;;;8260277;28;20099;-74
2021/10/17 18:54:45;;;;;;;31.90;12.30;;;;;;;;;;8258253;28;20041;-75
2021/10/17 18:58:50;;;;;;;39.92;14.68;;;;;;;;;;8259909;28;20452;-75
2021/10/17 19:02:58;;;;;;;50.90;17.98;;;;;;;;;;8258787;28;20502;-74
2021/10/17 19:07:03;;;;;;;33.50;11.33;;;;;;;;;;8257442;28;20068;-74
2021/10/17 19:11:10;;;;;;;51.33;19.58;;;;;;;;;;8257423;28;20475;-75
2021/10/17 19:15:17;;;;;;;33.33;13.05;;;;;;;;;;8239342;28;20371;-74
2021/10/17 19:19:22;;;;;;;27.27;12.25;;;;;;;;;;8257850;28;20595;-75
2021/10/17 19:23:28;;;;;;;44.83;16.75;;;;;;;;;;8240196;28;20344;-74
2021/10/17 19:27:34;;;;;;;63.35;21.08;;;;;;;;;;8261588;28;20448;-75
2021/10/17 19:31:40;;;;;;;32.50;14.13;;;;;;;;;;8246505;28;20452;-75
2021/10/17 19:35:45;;;;;;;29.65;10.57;;;;;;;;;;8264177;28;20476;-75
2021/10/17 19:39:50;;;;;;;68.00;20.08;;;;;;;;;;8246525;28;20341;-75
2021/10/17 19:43:56;;;;;;;66.82;18.70;;;;;;;;;;8263810;28;20049;-75
2021/10/17 19:48:01;;;;;;;30.65;11.10;;;;;;;;;;8262447;28;20447;-75
2021/10/17 19:52:06;;;;;;;28.20;11.77;;;;;;;;;;8263972;28;20084;-75
2021/10/17 19:56:11;;;;;;;29.90;12.77;;;;;;;;;;8264023;28;20452;-75
2021/10/17 20:00:16;;;;;;;29.05;12.90;;;;;;;;;;8266153;28;20458;-76
2021/10/17 20:04:21;;;;;;;29.85;13.07;;;;;;;;;;8267837;28;20041;-76
2021/10/17 20:08:27;;;;;;;32.95;13.02;;;;;;;;;;8265769;28;20333;-75
2021/10/17 20:12:32;;;;;;;31.38;13.32;;;;;;;;;;8231655;28;20057;-75
2021/10/17 20:16:37;;;;;;;37.47;13.77;;;;;;;;;;8232027;28;20362;-76
2021/10/17 20:21:02;;;;;;;38.75;14.88;;;;;;;;;;8232572;28;20487;-76
2021/10/17 20:25:07;;;;;;;44.38;15.07;;;;;;;;;;8233447;28;20075;-75
2021/10/17 20:29:12;;;;;;;33.92;13.20;;;;;;;;;;8249776;28;20047;-76
2021/10/17 20:33:19;;;;;;;53.53;16.83;;;;;;;;;;8237509;28;20451;-76
2021/10/17 20:37:38;;;;;;;43.97;16.30;;;;;;;;;;8232401;28;20357;-75
2021/10/17 20:41:42;;;;;;;35.90;12.77;;;;;;;;;;8247173;28;20045;-75
2021/10/17 20:45:47;;;;;;;30.10;13.10;;;;;;;;;;8247867;28;20477;-75
2021/10/17 20:49:53;;;;;;;40.10;14.70;;;;;;;;;;8231016;28;20318;-75
2021/10/17 20:53:58;;;;;;;41.88;14.88;;;;;;;;;;8232338;28;20108;-75
2021/10/17 20:58:03;;;;;;;44.55;15.60;;;;;;;;;;8229600;28;20050;-75
2021/10/17 21:02:09;;;;;;;40.50;14.43;;;;;;;;;;8232221;28;20056;-76
2021/10/17 21:06:16;;;;;;;199.57;59.28;;;;;;;;;;8231093;28;20063;-75
2021/10/17 21:10:21;;;;;;;52.30;19.38;;;;;;;;;;8251367;28;20476;-75
2021/10/17 21:14:27;;;;;;;28.17;12.85;;;;;;;;;;8264448;28;20068;-75
2021/10/17 21:18:32;;;;;;;32.25;14.13;;;;;;;;;;8263073;28;20480;-75
2021/10/17 21:22:37;;;;;;;38.30;14.50;;;;;;;;;;8261159;28;20345;-75
2021/10/17 21:26:43;;;;;;;44.55;13.30;;;;;;;;;;8262340;28;20059;-75
2021/10/17 21:30:48;;;;;;;44.65;14.55;;;;;;;;;;8243982;28;20375;-75
2021/10/17 21:34:54;;;;;;;37.08;15.10;;;;;;;;;;8261981;28;20464;-75
2021/10/17 21:38:59;;;;;;;33.05;13.20;;;;;;;;;;8244733;28;20414;-76
2021/10/17 21:43:05;;;;;;;35.35;14.20;;;;;;;;;;8245234;28;20045;-75
2021/10/17 21:47:10;;;;;;;30.25;12.90;;;;;;;;;;8244452;28;20383;-75
2021/10/17 21:51:15;;;;;;;29.75;13.25;;;;;;;;;;8260252;28;20122;-75
2021/10/17 21:55:21;;;;;;;35.05;13.48;;;;;;;;;;8227543;28;20537;-75
2021/10/17 21:59:26;;;;;;;34.03;12.75;;;;;;;;;;8244155;28;20472;-75
2021/10/17 22:03:31;;;;;;;43.33;16.02;;;;;;;;;;8261100;28;20566;-75
2021/10/17 22:07:36;;;;;;;38.78;13.82;;;;;;;;;;8243889;28;20048;-75
2021/10/17 22:11:41;;;;;;;37.00;16.45;;;;;;;;;;8260754;28;20371;-75
2021/10/17 22:15:46;;;;;;;36.67;14.38;;;;;;;;;;8260070;28;20355;-75
2021/10/17 22:19:52;;;;;;;39.22;14.27;;;;;;;;;;8261119;28;21081;-76
2021/10/17 22:23:57;;;;;;;40.22;14.40;;;;;;;;;;8243338;28;20598;-75
2021/10/17 22:28:02;;;;;;;44.45;15.52;;;;;;;;;;8242937;28;20488;-75
2021/10/17 22:32:09;;;;;;;35.22;14.18;;;;;;;;;;8243451;28;20483;-75
2021/10/17 22:36:16;;;;;;;37.60;14.90;;;;;;;;;;8262514;28;20071;-75
2021/10/17 22:40:21;;;;;;;37.65;15.93;;;;;;;;;;8260185;28;20045;-75
2021/10/17 22:44:27;;;;;;;43.58;16.63;;;;;;;;;;8262860;28;20470;-75
2021/10/17 22:48:32;;;;;;;40.40;15.13;;;;;;;;;;8260199;28;20480;-75
2021/10/17 22:52:37;;;;;;;38.92;15.25;;;;;;;;;;8259704;28;20490;-76
2021/10/17 22:56:43;;;;;;;48.03;18.13;;;;;;;;;;8259562;28;20494;-75
2021/10/17 23:00:48;;;;;;;88.03;33.30;;;;;;;;;;8243141;28;20507;-75
2021/10/17 23:04:54;;;;;;;51.22;20.17;;;;;;;;;;8259853;28;20478;-75
2021/10/17 23:09:00;;;;;;;35.88;15.95;;;;;;;;;;8261582;28;20060;-75
2021/10/17 23:13:05;;;;;;;45.42;17.35;;;;;;;;;;8227705;28;20485;-75
2021/10/17 23:17:10;;;;;;;38.35;14.68;;;;;;;;;;8195994;28;20469;-76
2021/10/17 23:21:15;;;;;;;47.00;16.48;;;;;;;;;;8196003;28;20381;-75
2021/10/17 23:25:20;;;;;;;42.15;16.52;;;;;;;;;;8196593;28;20042;-75
2021/10/17 23:29:25;;;;;;;50.58;20.98;;;;;;;;;;8196530;28;20060;-75
2021/10/17 23:33:31;;;;;;;46.40;19.35;;;;;;;;;;8197267;28;20058;-75
2021/10/17 23:37:36;;;;;;;40.00;17.80;;;;;;;;;;8195493;28;20505;-75
2021/10/17 23:41:41;;;;;;;48.00;17.80;;;;;;;;;;8193746;28;20050;-75
2021/10/17 23:45:46;;;;;;;43.80;18.10;;;;;;;;;;8194888;28;20038;-75
2021/10/17 23:49:51;;;;;;;52.33;18.95;;;;;;;;;;8195471;28;20660;-75
2021/10/17 23:53:57;;;;;;;43.67;17.33;;;;;;;;;;8195914;28;20042;-75
2021/10/17 23:58:02;;;;;;;50.90;19.50;;;;;;;;;;8196438;28;20386;-75
